Time;durP1;ratioP1;P1;durP2;ratioP2;P2;SDS_P1;SDS_P2;PMS_P1;PMS_P2;Temp;Humidity;BMP_temperature;BMP_pressure;BME280_temperature;BME280_humidity;BME280_pressure;Samples;Min_cycle;Max_cycle;Signal;HPM_P1;HPM_P2
2021/12/20 00:02:12;;;;;;;17.65;10.93;;;;;;;2.82;76.33;93330.73;1714827;83;20974;-59
2021/12/20 00:04:39;;;;;;;27.15;16.80;;;;;;;2.76;76.23;93332.47;1721866;83;20978;-58
2021/12/20 00:07:06;;;;;;;16.73;9.53;;;;;;;2.72;76.87;93348.08;1722475;83;21140;-58
2021/12/20 00:09:35;;;;;;;11.20;6.67;;;;;;;2.77;76.67;93350.28;1722386;83;21025;-56
2021/12/20 00:12:04;;;;;;;9.15;7.58;;;;;;;2.77;75.91;93341.36;1722557;83;21052;-58
2021/12/20 00:14:32;;;;;;;13.15;8.80;;;;;;;2.67;75.40;93338.38;1722575;83;21136;-57
2021/12/20 00:17:01;;;;;;;8.33;6.08;;;;;;;2.63;75.56;93345.83;1670729;83;21414;-58
2021/12/20 00:19:28;;;;;;;7.80;7.00;;;;;;;2.61;75.32;93352.28;1722453;83;21105;-58
2021/12/20 00:21:55;;;;;;;9.85;8.85;;;;;;;2.59;75.20;93354.09;1722385;83;21053;-57
2021/12/20 00:24:22;;;;;;;6.90;6.25;;;;;;;2.63;75.56;93355.33;1722543;83;21080;-57
2021/12/20 00:26:51;;;;;;;8.75;7.72;;;;;;;2.65;74.91;93361.11;1722505;83;21006;-57
2021/12/20 00:29:19;;;;;;;14.68;12.55;;;;;;;2.60;74.81;93362.98;1722497;83;20967;-56
2021/12/20 00:31:46;;;;;;;10.82;8.03;;;;;;;2.49;74.98;93367.95;1722161;83;21148;-57
2021/12/20 00:34:13;;;;;;;9.45;7.45;;;;;;;2.43;75.26;93361.51;1722735;83;21093;-56
2021/12/20 00:36:40;;;;;;;7.17;6.42;;;;;;;2.38;75.25;93376.96;1722704;83;21438;-58
2021/12/20 00:41:54;;;;;;;8.23;6.35;;;;;;;2.41;75.25;93377.45;1698391;83;20986;-57
2021/12/20 00:44:20;;;;;;;9.58;6.55;;;;;;;2.49;75.35;93381.52;1721755;83;22002;-58
2021/12/20 00:46:50;;;;;;;7.55;6.25;;;;;;;2.62;75.10;93374.94;1722474;83;21490;-58
2021/12/20 00:49:20;;;;;;;10.88;7.28;;;;;;;2.68;74.12;93375.18;1718159;83;21002;-58
2021/12/20 00:51:48;;;;;;;11.93;7.53;;;;;;;2.64;74.01;93386.13;1722418;83;20986;-58
2021/12/20 00:54:20;;;;;;;8.85;6.40;;;;;;;2.62;73.81;93386.38;1722433;83;21022;-56
2021/12/20 00:56:49;;;;;;;20.20;12.73;;;;;;;2.60;73.63;93380.62;1722574;83;21110;-56
2021/12/20 00:59:18;;;;;;;21.80;13.38;;;;;;;2.51;73.18;93373.09;1722419;83;21018;-57
2021/12/20 01:01:45;;;;;;;28.73;18.95;;;;;;;2.33;73.32;93377.49;1722276;83;21508;-57
2021/12/20 01:04:12;;;;;;;21.80;13.75;;;;;;;2.22;73.59;93397.34;1717342;83;20990;-56
2021/12/20 01:06:41;;;;;;;17.52;11.68;;;;;;;2.17;73.86;93396.52;1715149;83;21474;-57
2021/12/20 01:09:08;;;;;;;18.12;12.03;;;;;;;2.10;73.84;93385.86;1715235;83;21841;-57
2021/12/20 01:11:40;;;;;;;13.08;9.60;;;;;;;2.07;74.38;93400.24;1714807;83;20958;-57
2021/12/20 01:14:05;;;;;;;14.10;10.13;;;;;;;2.05;73.88;93396.62;1714694;83;21478;-58
2021/12/20 01:16:33;;;;;;;20.75;11.73;;;;;;;2.04;73.36;93397.03;1714925;83;20958;-58
2021/12/20 01:19:04;;;;;;;20.57;12.68;;;;;;;2.04;73.60;93402.45;1714922;83;21530;-58
2021/12/20 01:21:32;;;;;;;29.27;14.93;;;;;;;2.12;73.62;93401.84;1714970;83;21185;-58
2021/12/20 01:23:58;;;;;;;21.45;13.32;;;;;;;2.18;73.47;93393.36;1694862;83;20955;-57
2021/12/20 01:26:25;;;;;;;40.08;20.15;;;;;;;2.12;73.53;93401.10;1694466;83;21023;-58
2021/12/20 01:28:52;;;;;;;34.13;16.60;;;;;;;2.06;73.73;93406.85;1714956;83;21010;-58
2021/12/20 01:31:19;;;;;;;16.67;10.80;;;;;;;2.01;73.38;93410.86;1714927;83;20994;-57
2021/12/20 01:33:47;;;;;;;5.35;4.80;;;;;;;1.98;72.98;93413.65;1714828;83;21175;-58
2021/12/20 01:36:13;;;;;;;4.47;3.90;;;;;;;1.89;68.05;93424.31;1714866;83;21018;-58
2021/12/20 01:38:40;;;;;;;4.37;4.08;;;;;;;1.72;65.47;93413.91;1715124;83;21426;-57
2021/12/20 01:41:08;;;;;;;4.42;4.12;;;;;;;1.61;64.82;93416.87;1715132;83;21474;-58
2021/12/20 01:43:35;;;;;;;4.90;4.45;;;;;;;1.49;63.34;93412.11;1718578;83;21077;-56
2021/12/20 01:46:02;;;;;;;30.92;19.87;;;;;;;1.43;63.62;93405.67;1715160;83;21201;-57
2021/12/20 01:48:32;;;;;;;8.40;6.85;;;;;;;1.40;64.09;93411.16;1714785;83;21011;-57
2021/12/20 01:53:40;;;;;;;4.90;4.58;;;;;;;1.51;63.42;93401.60;1718255;83;21057;-58
2021/12/20 01:56:08;;;;;;;10.75;8.98;;;;;;;1.49;64.00;93405.33;1715118;83;21053;-58
2021/12/20 01:58:35;;;;;;;8.85;6.55;;;;;;;1.46;63.79;93413.53;1714763;83;21986;-57
2021/12/20 02:03:39;;;;;;;;;;;;;;;1.52;64.49;93399.06;1717304;83;21042;-57
2021/12/20 02:06:12;;;;;;;12.18;7.45;;;;;;;1.55;64.89;93400.17;1714989;83;20445;-57
2021/12/20 02:08:40;;;;;;;11.43;7.85;;;;;;;1.57;64.53;93406.71;1714695;83;21049;-57
2021/12/20 02:11:09;;;;;;;7.67;6.90;;;;;;;1.62;64.53;93406.78;1694968;83;21201;-57
2021/12/20 02:13:38;;;;;;;5.08;4.67;;;;;;;1.58;64.20;93402.81;1715120;83;21022;-57
2021/12/20 02:16:08;;;;;;;6.80;6.12;;;;;;;1.58;63.73;93402.81;1694324;83;21045;-58
2021/12/20 02:18:36;;;;;;;6.28;5.67;;;;;;;1.65;63.36;93403.99;1694543;83;21022;-56
2021/12/20 02:21:02;;;;;;;5.60;5.10;;;;;;;1.62;62.88;93403.48;1718303;83;21057;-58
2021/12/20 02:23:31;;;;;;;5.65;5.15;;;;;;;1.63;62.96;93402.30;1694610;83;21393;-59
2021/12/20 02:25:59;;;;;;;6.17;5.42;;;;;;;1.58;63.18;93398.75;1714949;83;20992;-57
2021/12/20 02:28:34;;;;;;;6.50;6.00;;;;;;;1.62;63.36;93398.06;1715021;83;21057;-58
2021/12/20 02:38:49;;;;;;;9.20;8.30;;;;;;;1.41;65.04;93383.66;1714752;83;21010;-57
2021/12/20 02:41:29;;;;;;;8.28;7.53;;;;;;;1.36;64.79;93386.85;1714945;83;27975;-57
2021/12/20 02:43:57;;;;;;;6.75;6.12;;;;;;;1.28;65.04;93388.21;1714815;83;21021;-58
2021/12/20 02:46:47;;;;;;;35.05;20.88;;;;;;;1.25;65.40;93390.41;1718415;83;21056;-58
2021/12/20 02:49:00;;;;;;;11.65;9.68;;;;;;;1.24;65.78;93390.24;1713729;83;21427;-56
2021/12/20 02:51:27;;;;;;;10.13;9.10;;;;;;;1.27;66.06;93398.88;1714829;83;21023;-57
2021/12/20 02:53:56;;;;;;;6.75;6.15;;;;;;;1.37;66.14;93401.95;1714791;83;21038;-58
2021/12/20 02:56:23;;;;;;;7.17;6.10;;;;;;;1.49;65.86;93407.30;1715064;83;21101;-58
2021/12/20 02:58:52;;;;;;;8.33;7.33;;;;;;;1.49;65.75;93403.98;1714857;83;20978;-57
2021/12/20 03:01:20;;;;;;;11.43;8.15;;;;;;;1.53;65.87;93413.39;1715051;83;21079;-57
2021/12/20 03:03:48;;;;;;;9.83;7.75;;;;;;;1.60;66.10;93407.80;1684699;85;20982;-57
2021/12/20 03:06:22;;;;;;;13.20;9.38;;;;;;;1.70;66.29;93418.38;1672021;85;21012;-57
2021/12/20 03:08:54;;;;;;;25.48;16.10;;;;;;;1.72;66.14;93421.43;1671789;85;20998;-57
2021/12/20 03:11:24;;;;;;;24.35;14.33;;;;;;;1.64;66.31;93420.09;1671909;85;20982;-57
2021/12/20 03:13:57;;;;;;;21.45;13.08;;;;;;;1.59;66.37;93416.53;1671681;85;21808;-58
2021/12/20 03:16:24;;;;;;;39.25;21.50;;;;;;;1.58;65.83;93417.72;1671847;85;21002;-57
2021/12/20 03:18:51;;;;;;;43.02;23.62;;;;;;;1.51;65.74;93419.83;1671746;85;20978;-57
2021/12/20 03:21:17;;;;;;;35.33;19.85;;;;;;;1.48;65.90;93426.84;1672016;85;21441;-57
2021/12/20 03:23:44;;;;;;;18.40;11.90;;;;;;;1.47;65.71;93426.67;1671739;85;21069;-57
2021/12/20 03:26:10;;;;;;;12.30;7.90;;;;;;;1.42;66.17;93445.36;1672060;85;21492;-57
2021/12/20 03:28:37;;;;;;;38.42;21.60;;;;;;;1.28;65.99;93447.05;1672416;85;21014;-57
2021/12/20 03:31:06;;;;;;;33.48;20.15;;;;;;;1.20;66.35;93446.43;1664103;85;21022;-57
2021/12/20 03:33:33;;;;;;;26.30;16.12;;;;;;;1.12;66.68;93442.94;1664351;85;21032;-58
2021/12/20 03:36:00;;;;;;;25.05;13.60;;;;;;;1.13;66.51;93449.88;1671818;85;20986;-57
2021/12/20 03:38:26;;;;;;;25.50;11.55;;;;;;;1.14;66.63;93456.81;1671672;85;21164;-57
2021/12/20 03:40:57;;;;;;;6.75;5.70;;;;;;;1.19;66.42;93447.62;1671684;85;21010;-57
2021/12/20 03:43:31;;;;;;;10.08;7.50;;;;;;;1.10;66.90;93435.22;1671743;85;21160;-56
2021/12/20 03:45:57;;;;;;;11.00;7.97;;;;;;;1.02;67.63;93436.56;1671527;84;21021;-58
2021/12/20 03:48:27;;;;;;;23.00;13.40;;;;;;;0.95;68.11;93433.23;1671857;85;21529;-58
2021/12/20 03:50:55;;;;;;;87.50;50.80;;;;;;;0.99;68.75;93442.78;1671495;84;21175;-59
2021/12/20 03:53:24;;;;;;;21.20;14.58;;;;;;;1.13;69.09;93443.86;1671673;85;20954;-57
2021/12/20 03:55:51;;;;;;;10.10;8.00;;;;;;;1.24;68.92;93437.63;1671756;85;20982;-58
2021/12/20 03:58:23;;;;;;;8.53;7.55;;;;;;;1.22;69.14;93441.36;1671550;84;21521;-57
2021/12/20 04:00:51;;;;;;;9.83;8.75;;;;;;;1.15;69.35;93441.48;1671657;85;20981;-58
2021/12/20 04:03:18;;;;;;;14.95;10.70;;;;;;;1.08;69.79;93438.94;1671670;85;21874;-58
2021/12/20 04:05:45;;;;;;;14.83;10.35;;;;;;;1.19;70.01;93440.07;1712493;83;21105;-57
2021/12/20 04:08:12;;;;;;;15.80;11.18;;;;;;;1.30;69.91;93438.66;1715122;83;21430;-57
2021/12/20 04:10:39;;;;;;;38.92;18.85;;;;;;;1.42;70.08;93444.78;1715057;83;21491;-57
2021/12/20 04:13:05;;;;;;;37.93;21.90;;;;;;;1.54;69.63;93442.75;1714771;83;21081;-57
2021/12/20 04:15:32;;;;;;;34.78;22.73;;;;;;;1.58;69.52;93449.46;1714853;83;21153;-57
2021/12/20 04:18:00;;;;;;;61.15;33.48;;;;;;;1.60;69.63;93449.22;1714973;83;21019;-58
2021/12/20 04:20:29;;;;;;;71.82;40.50;;;;;;;1.61;69.28;93449.39;1694289;83;21528;-57
2021/12/20 04:22:56;;;;;;;59.38;32.50;;;;;;;1.55;69.22;93451.08;1714946;83;21541;-57
2021/12/20 04:25:25;;;;;;;44.13;29.35;;;;;;;1.50;69.18;93451.56;1694613;83;21612;-57
2021/12/20 04:27:51;;;;;;;39.10;22.90;;;;;;;1.44;69.08;93447.84;1713206;83;21106;-57
2021/12/20 04:30:18;;;;;;;36.05;20.80;;;;;;;1.37;68.91;93452.06;1694411;83;20966;-57
2021/12/20 04:32:45;;;;;;;19.45;14.65;;;;;;;1.30;69.06;93454.91;1714792;83;21077;-57
2021/12/20 04:35:14;;;;;;;14.98;10.03;;;;;;;1.27;69.18;93462.52;1714762;83;20998;-57
2021/12/20 04:37:43;;;;;;;11.12;8.80;;;;;;;1.33;69.28;93457.38;1715186;83;20970;-59
2021/12/20 04:40:20;;;;;;;27.30;15.65;;;;;;;1.41;68.93;93456.80;1714903;83;21231;-56
2021/12/20 04:42:49;;;;;;;35.58;22.52;;;;;;;1.45;68.33;93469.68;1715229;83;21509;-59
2021/12/20 04:45:16;;;;;;;26.80;18.75;;;;;;;1.37;68.63;93476.45;1714274;83;21068;-58
2021/12/20 04:47:43;;;;;;;17.95;11.83;;;;;;;1.42;68.38;93473.81;1715055;83;21632;-57
2021/12/20 04:50:10;;;;;;;14.13;10.38;;;;;;;1.39;68.34;93477.36;1714911;83;20986;-58
2021/12/20 04:52:37;;;;;;;18.17;12.35;;;;;;;1.25;68.30;93470.30;1714879;83;21109;-57
2021/12/20 04:55:06;;;;;;;10.38;9.00;;;;;;;1.16;68.58;93469.34;1714866;83;21049;-56
2021/12/20 04:57:34;;;;;;;16.25;12.88;;;;;;;1.14;68.33;93474.42;1714871;83;21061;-58
2021/12/20 05:00:01;;;;;;;8.90;7.33;;;;;;;1.06;68.12;93473.02;1714936;83;21030;-57
2021/12/20 05:02:30;;;;;;;10.13;8.38;;;;;;;0.89;68.23;93487.67;1715089;83;21442;-57
2021/12/20 05:04:56;;;;;;;12.73;9.88;;;;;;;0.74;68.58;93479.06;1714178;83;21466;-59
2021/12/20 05:07:26;;;;;;;17.95;12.68;;;;;;;0.63;69.02;93485.86;1714858;83;21054;-58
2021/12/20 05:10:01;;;;;;;20.75;16.97;;;;;;;0.52;69.35;93487.41;1694898;83;20978;-58
2021/12/20 05:12:28;;;;;;;14.95;11.25;;;;;;;0.50;70.07;93493.82;1714811;83;21085;-58
2021/12/20 05:14:57;;;;;;;16.20;11.93;;;;;;;0.64;70.23;93497.63;1714899;83;21022;-57
2021/12/20 05:17:26;;;;;;;22.00;17.10;;;;;;;0.76;69.67;93498.35;1715040;83;21058;-58
2021/12/20 05:19:53;;;;;;;35.17;22.98;;;;;;;0.77;69.55;93501.23;1714818;83;20978;-58
2021/12/20 05:22:22;;;;;;;127.32;64.00;;;;;;;0.82;69.82;93508.11;1714872;83;21001;-57
2021/12/20 05:24:49;;;;;;;30.97;19.17;;;;;;;0.90;69.69;93499.45;1714659;83;20973;-57
2021/12/20 05:27:15;;;;;;;15.40;11.97;;;;;;;0.98;69.40;93496.02;1714961;83;21018;-57
2021/12/20 05:29:50;;;;;;;27.25;15.18;;;;;;;0.98;68.92;93492.70;1714845;83;21157;-57
2021/12/20 05:32:18;;;;;;;92.70;37.33;;;;;;;0.94;68.29;93506.16;1714883;83;20994;-55
2021/12/20 05:34:45;;;;;;;57.10;31.07;;;;;;;0.77;68.36;93497.17;1714879;83;20990;-56
2021/12/20 05:37:13;;;;;;;33.67;20.30;;;;;;;0.70;68.77;93498.67;1693957;83;21309;-56
2021/12/20 05:39:41;;;;;;;31.15;19.35;;;;;;;0.78;68.76;93500.66;1714948;83;20978;-54
2021/12/20 05:42:08;;;;;;;26.93;18.30;;;;;;;0.87;68.02;93504.34;1714917;83;21155;-57
2021/12/20 05:44:35;;;;;;;42.67;29.00;;;;;;;0.83;67.73;93510.99;1714822;83;21006;-58
2021/12/20 05:47:03;;;;;;;29.12;18.23;;;;;;;0.82;67.76;93517.02;1714863;83;21003;-60
2021/12/20 05:49:31;;;;;;;26.73;16.42;;;;;;;0.94;67.77;93515.63;1693657;83;20974;-60
2021/12/20 05:52:03;;;;;;;16.60;12.35;;;;;;;1.11;67.51;93524.00;1715016;83;21132;-60
2021/12/20 05:54:30;;;;;;;11.93;10.60;;;;;;;1.21;66.92;93510.25;1714865;83;21156;-57
2021/12/20 05:56:57;;;;;;;14.55;12.13;;;;;;;1.28;66.57;93520.17;1714799;83;20998;-58
2021/12/20 05:59:24;;;;;;;13.95;10.38;;;;;;;1.37;66.10;93521.14;1694325;83;21471;-56
2021/12/20 06:01:51;;;;;;;12.93;10.78;;;;;;;1.46;65.71;93513.77;1714913;83;20979;-56
2021/12/20 06:04:18;;;;;;;11.50;10.30;;;;;;;1.51;65.25;93518.11;1695161;83;20977;-55
2021/12/20 06:06:46;;;;;;;21.15;15.18;;;;;;;1.52;65.04;93527.77;1722673;83;21202;-57
2021/12/20 06:09:13;;;;;;;28.50;19.12;;;;;;;1.58;64.62;93531.53;1722417;83;21075;-57
2021/12/20 06:11:42;;;;;;;23.05;16.25;;;;;;;1.64;64.49;93529.84;1722502;83;21002;-57
2021/12/20 06:14:09;;;;;;;19.85;12.93;;;;;;;1.66;64.24;93532.89;1722521;83;20978;-57
2021/12/20 06:16:39;;;;;;;20.40;12.98;;;;;;;1.58;63.79;93532.88;1722524;83;21041;-58
2021/12/20 06:19:06;;;;;;;26.23;16.07;;;;;;;1.37;63.71;93537.39;1722512;83;21176;-59
2021/12/20 06:21:35;;;;;;;36.35;20.50;;;;;;;1.14;64.11;93529.33;1722599;83;21423;-57
2021/12/20 06:24:02;;;;;;;37.55;23.55;;;;;;;1.03;64.52;93530.14;1722038;83;20962;-59
2021/12/20 06:26:28;;;;;;;42.23;24.98;;;;;;;1.00;64.62;93540.42;1722546;83;21438;-58
2021/12/20 06:28:55;;;;;;;33.28;20.02;;;;;;;1.02;64.78;93547.56;1722654;83;21069;-59
2021/12/20 06:31:21;;;;;;;57.13;34.85;;;;;;;1.09;64.37;93551.48;1722032;83;21135;-57
2021/12/20 06:33:48;;;;;;;52.08;29.37;;;;;;;1.03;64.36;93549.09;1722141;82;21094;-58
2021/12/20 06:36:15;;;;;;;38.88;21.93;;;;;;;0.99;64.73;93551.68;1731788;82;20983;-58
2021/12/20 06:38:45;;;;;;;38.13;20.68;;;;;;;1.00;64.52;93559.38;1734005;82;21426;-59
2021/12/20 06:41:11;;;;;;;30.23;19.12;;;;;;;1.02;64.48;93557.03;1733863;82;20951;-58
2021/12/20 06:43:38;;;;;;;35.05;22.55;;;;;;;1.01;64.17;93560.92;1706142;82;21140;-59
2021/12/20 06:46:07;;;;;;;27.90;17.42;;;;;;;1.00;64.27;93564.78;1745290;81;21166;-59
2021/12/20 06:48:34;;;;;;;25.10;17.85;;;;;;;1.03;64.36;93573.45;1746033;82;21074;-58
2021/12/20 06:51:01;;;;;;;19.35;12.60;;;;;;;1.10;64.34;93560.37;1721577;81;21533;-58
2021/12/20 06:53:28;;;;;;;35.08;18.85;;;;;;;1.18;63.57;93565.82;1716239;82;21110;-58
2021/12/20 06:55:54;;;;;;;18.70;13.88;;;;;;;1.16;63.44;93566.23;1705529;82;21150;-59
2021/12/20 06:58:23;;;;;;;30.55;19.05;;;;;;;1.17;63.52;93570.45;1742870;81;20956;-58
2021/12/20 07:00:51;;;;;;;24.77;15.20;;;;;;;1.21;63.42;93577.95;1732944;81;21061;-58
2021/12/20 07:03:20;;;;;;;16.40;11.80;;;;;;;1.15;63.22;93578.84;1739768;82;21078;-56
2021/12/20 07:05:47;;;;;;;17.20;11.57;;;;;;;1.11;63.40;93571.38;1723096;81;21029;-59
2021/12/20 07:08:14;;;;;;;12.63;10.00;;;;;;;1.08;63.22;93582.45;1729825;81;21119;-57
2021/12/20 07:10:41;;;;;;;16.52;12.18;;;;;;;1.10;62.96;93586.85;1726645;82;21133;-58
2021/12/20 07:13:09;;;;;;;17.57;11.15;;;;;;;1.11;62.86;93596.50;1730531;82;22048;-58
2021/12/20 07:15:37;;;;;;;22.90;15.68;;;;;;;1.06;62.90;93584.80;1725376;81;21051;-56
2021/12/20 07:18:04;;;;;;;23.80;14.98;;;;;;;1.09;63.20;93585.90;1714748;82;21184;-58
2021/12/20 07:20:36;;;;;;;19.32;12.65;;;;;;;1.15;63.10;93582.30;1726484;82;22175;-59
2021/12/20 07:23:05;;;;;;;21.00;13.18;;;;;;;1.13;62.92;93588.72;1708780;82;21038;-59
2021/12/20 07:25:32;;;;;;;33.18;19.12;;;;;;;1.10;62.97;93592.27;1712109;82;21449;-57
2021/12/20 07:27:59;;;;;;;35.40;18.45;;;;;;;1.10;63.15;93589.56;1731663;81;21484;-59
2021/12/20 07:30:27;;;;;;;30.88;19.92;;;;;;;1.08;63.34;93593.27;1731722;81;21086;-58
2021/12/20 07:32:55;;;;;;;31.45;17.48;;;;;;;1.08;63.44;93589.78;1729852;81;21146;-57
2021/12/20 07:35:23;;;;;;;29.45;18.02;;;;;;;1.06;63.44;93588.09;1724689;81;21074;-58
2021/12/20 07:37:52;;;;;;;34.43;19.48;;;;;;;0.98;63.58;93588.80;1736066;82;21622;-58
2021/12/20 07:40:21;;;;;;;34.70;20.10;;;;;;;0.94;64.00;93604.35;1732664;81;21085;-56
2021/12/20 07:42:48;;;;;;;39.20;23.12;;;;;;;0.98;64.03;93606.41;1711461;81;21021;-57
2021/12/20 07:45:18;;;;;;;55.28;31.68;;;;;;;1.02;64.12;93608.48;1729747;81;21116;-58
2021/12/20 07:48:04;;;;;;;43.28;25.43;;;;;;;1.08;64.12;93610.88;1726900;82;21938;-58
2021/12/20 07:50:31;;;;;;;56.45;32.65;;;;;;;1.18;63.94;93607.19;1725715;81;21042;-56
2021/12/20 07:53:00;;;;;;;66.05;35.55;;;;;;;1.16;64.12;93610.91;1716938;81;21445;-57
2021/12/20 07:55:27;;;;;;;57.43;30.57;;;;;;;1.10;64.66;93615.28;1661453;84;21030;-59
2021/12/20 07:57:57;;;;;;;46.48;28.35;;;;;;;1.05;65.07;93616.34;1662029;84;22264;-58
2021/12/20 08:00:28;;;;;;;34.67;21.65;;;;;;;1.03;65.47;93616.77;1722995;81;22212;-56
2021/12/20 08:03:02;;;;;;;44.10;28.20;;;;;;;1.04;65.69;93612.89;1730745;81;21108;-54
2021/12/20 08:05:29;;;;;;;35.15;19.70;;;;;;;1.00;65.82;93606.00;1724094;81;21138;-62
2021/12/20 08:07:55;;;;;;;51.50;29.12;;;;;;;1.01;65.73;93607.53;1733165;82;21064;-57
2021/12/20 08:10:26;;;;;;;43.83;26.70;;;;;;;1.06;65.83;93617.88;1728516;81;21069;-66
2021/12/20 08:12:56;;;;;;;40.40;25.75;;;;;;;1.12;65.43;93614.27;1728667;81;21051;-62
2021/12/20 08:15:23;;;;;;;44.85;27.27;;;;;;;1.18;65.42;93618.02;1713690;82;21497;-60
2021/12/20 08:17:50;;;;;;;34.20;22.50;;;;;;;1.19;65.35;93618.23;1724880;82;21132;-58
2021/12/20 08:20:19;;;;;;;24.63;16.25;;;;;;;1.25;65.46;93626.61;1729915;80;21193;-57
2021/12/20 08:22:47;;;;;;;25.32;18.37;;;;;;;1.35;65.24;93631.08;1715857;81;21105;-58
2021/12/20 08:25:18;;;;;;;36.20;22.75;;;;;;;1.38;64.93;93631.02;1702191;82;21077;-58
2021/12/20 08:27:46;;;;;;;27.67;17.32;;;;;;;1.39;65.15;93639.33;1732932;81;21068;-58
2021/12/20 08:30:21;;;;;;;29.57;19.10;;;;;;;1.50;64.79;93631.73;1733228;81;21050;-60
2021/12/20 08:32:47;;;;;;;22.00;15.18;;;;;;;1.54;64.79;93636.49;1727214;81;21053;-59
2021/12/20 08:35:15;;;;;;;29.87;17.40;;;;;;;1.66;64.70;93635.88;1723708;82;21177;-57
2021/12/20 08:37:41;;;;;;;26.15;14.68;;;;;;;1.72;64.51;93645.65;1734507;81;21048;-58
2021/12/20 08:40:12;;;;;;;24.12;14.20;;;;;;;1.77;64.42;93648.64;1726135;81;21029;-58
2021/12/20 08:42:57;;;;;;;22.00;14.05;;;;;;;1.80;64.05;93643.73;1725417;81;21124;-58
2021/12/20 08:45:24;;;;;;;33.05;20.20;;;;;;;1.64;64.35;93638.25;1725041;81;21078;-57
2021/12/20 08:47:51;;;;;;;37.83;25.90;;;;;;;1.59;64.61;93646.09;1726543;81;21499;-59
2021/12/20 08:50:19;;;;;;;26.30;14.20;;;;;;;1.58;64.90;93643.98;1708440;82;21070;-58
2021/12/20 08:52:46;;;;;;;36.85;16.00;;;;;;;1.67;64.69;93644.79;1710131;82;21118;-61
2021/12/20 08:55:31;;;;;;;54.80;20.23;;;;;;;1.73;64.40;93649.28;1709625;82;21150;-58
2021/12/20 08:57:58;;;;;;;48.17;18.30;;;;;;;1.75;64.36;93643.63;1738503;81;21081;-60
2021/12/20 09:00:28;;;;;;;41.60;16.35;;;;;;;1.80;64.31;93645.09;1725734;82;21125;-59
2021/12/20 09:02:55;;;;;;;52.43;20.90;;;;;;;1.82;64.06;93638.66;1725483;81;20989;-58
2021/12/20 09:05:23;;;;;;;55.33;22.30;;;;;;;1.74;64.15;93642.70;1723939;81;21069;-59
2021/12/20 09:08:14;;;;;;;52.78;22.93;;;;;;;1.71;64.34;93638.70;1743940;81;21067;-59
2021/12/20 09:10:43;;;;;;;36.95;20.15;;;;;;;1.69;64.27;93637.00;1741646;81;21024;-61
2021/12/20 09:13:10;;;;;;;35.78;17.62;;;;;;;1.71;64.48;93630.57;1716458;81;21957;-56
2021/12/20 09:15:37;;;;;;;30.82;19.73;;;;;;;1.76;64.36;93637.63;1747792;81;21024;-60
2021/12/20 09:18:05;;;;;;;26.77;17.30;;;;;;;1.75;64.60;93630.68;1743411;81;21061;-62
2021/12/20 09:20:33;;;;;;;23.70;14.63;;;;;;;1.83;64.51;93624.70;1739088;81;21554;-63
2021/12/20 09:23:10;;;;;;;18.73;13.93;;;;;;;1.87;64.09;93634.87;1743735;81;21045;-61
2021/12/20 09:25:34;;;;;;;32.03;18.32;;;;;;;1.83;63.82;93632.05;1744822;81;21189;-62
2021/12/20 09:28:03;;;;;;;29.45;18.90;;;;;;;1.84;64.16;93622.73;1737264;81;20979;-61
2021/12/20 09:30:30;;;;;;;27.10;16.02;;;;;;;1.88;64.08;93624.20;1745576;81;21033;-61
2021/12/20 09:32:59;;;;;;;29.23;19.20;;;;;;;1.99;64.02;93617.19;1744601;81;21033;-61
2021/12/20 09:35:26;;;;;;;30.15;18.65;;;;;;;2.05;63.92;93625.00;1735840;81;21122;-57
2021/12/20 09:37:54;;;;;;;44.65;24.15;;;;;;;2.08;63.98;93634.42;1740731;81;21147;-61
2021/12/20 09:40:34;;;;;;;23.10;15.70;;;;;;;2.17;63.84;93632.48;1738480;81;21080;-59
2021/12/20 09:43:02;;;;;;;28.67;17.90;;;;;;;2.23;63.31;93635.65;1741249;81;21477;-57
2021/12/20 09:45:33;;;;;;;25.97;16.67;;;;;;;2.19;63.09;93635.55;1737719;81;21029;-59
2021/12/20 09:48:00;;;;;;;29.37;22.45;;;;;;;2.17;63.01;93633.23;1741276;81;21479;-61
2021/12/20 09:50:28;;;;;;;19.35;13.32;;;;;;;2.20;62.99;93634.36;1700983;83;21165;-58
2021/12/20 09:52:58;;;;;;;17.37;12.75;;;;;;;2.24;62.46;93637.75;1708560;83;21045;-60
2021/12/20 09:55:25;;;;;;;18.12;12.13;;;;;;;2.27;62.22;93635.55;1711157;83;21102;-59
2021/12/20 09:57:51;;;;;;;16.17;10.95;;;;;;;2.29;62.41;93629.14;1709651;83;21039;-56
2021/12/20 10:00:20;;;;;;;39.33;26.00;;;;;;;2.35;62.62;93637.69;1676545;84;21148;-58
2021/12/20 10:02:48;;;;;;;22.62;14.75;;;;;;;2.36;62.58;93634.39;1705210;83;22006;-56
2021/12/20 10:05:17;;;;;;;29.42;17.52;;;;;;;2.40;62.74;93626.93;1704524;83;21017;-57
2021/12/20 10:07:50;;;;;;;57.45;34.40;;;;;;;2.45;62.69;93633.20;1686283;83;21049;-57
2021/12/20 10:10:39;;;;;;;40.38;22.10;;;;;;;2.51;62.91;93622.03;1689294;83;21051;-57
2021/12/20 10:13:06;;;;;;;41.23;23.00;;;;;;;2.52;62.75;93623.56;1711390;81;21036;-61
2021/12/20 10:15:38;;;;;;;45.05;27.22;;;;;;;2.47;62.81;93634.31;1730730;81;21109;-56
2021/12/20 10:18:12;;;;;;;29.25;18.60;;;;;;;2.40;62.93;93622.86;1729521;81;21283;-59
2021/12/20 10:20:39;;;;;;;66.22;34.85;;;;;;;2.42;62.98;93619.91;1648579;85;21042;-57
2021/12/20 10:23:20;;;;;;;33.70;23.05;;;;;;;2.39;62.86;93618.62;1704002;81;21057;-58
2021/12/20 10:25:56;;;;;;;29.27;19.95;;;;;;;2.31;62.91;93633.55;1734896;81;21071;-57
2021/12/20 10:28:25;;;;;;;24.98;16.55;;;;;;;2.22;63.21;93629.27;1726126;81;21814;-56
2021/12/20 10:30:58;;;;;;;48.30;32.63;;;;;;;2.12;63.73;93627.57;1739581;81;21025;-58
2021/12/20 10:33:26;;;;;;;21.40;16.07;;;;;;;2.03;64.06;93621.36;1711324;82;21528;-57
2021/12/20 10:36:00;;;;;;;37.40;23.42;;;;;;;2.04;64.60;93622.89;1733767;81;21010;-64
2021/12/20 10:38:38;;;;;;;31.52;18.42;;;;;;;2.10;64.87;93622.55;1727932;81;21057;-59
2021/12/20 10:41:29;;;;;;;31.27;18.02;;;;;;;2.21;64.89;93620.97;1726780;81;21772;-58
2021/12/20 10:43:54;;;;;;;40.05;22.15;;;;;;;2.25;64.75;93631.14;1726865;81;21468;-58
2021/12/20 10:46:32;;;;;;;29.42;17.60;;;;;;;2.29;64.79;93623.71;1731618;82;21048;-59
2021/12/20 10:49:04;;;;;;;30.32;19.32;;;;;;;2.29;64.38;93625.81;1722402;81;21093;-59
2021/12/20 10:51:43;;;;;;;34.35;20.27;;;;;;;2.24;64.19;93628.26;1732387;81;21556;-54
2021/12/20 10:54:13;;;;;;;31.60;16.00;;;;;;;2.13;64.34;93622.31;1737560;81;21094;-58
2021/12/20 10:57:03;;;;;;;25.10;14.58;;;;;;;2.13;64.48;93620.96;1730403;81;21124;-58
2021/12/20 10:59:35;;;;;;;27.02;15.43;;;;;;;2.13;64.63;93618.25;1719898;81;21126;-57
2021/12/20 11:04:59;;;;;;;19.77;14.20;;;;;;;2.22;64.49;93619.78;1723963;80;21457;-58
2021/12/20 11:10:03;;;;;;;17.32;11.95;;;;;;;2.10;64.44;93624.52;1698088;83;21017;-59
2021/12/20 11:12:33;;;;;;;20.67;13.27;;;;;;;2.02;64.47;93619.84;1735811;81;21126;-57
2021/12/20 11:15:08;;;;;;;15.88;11.68;;;;;;;1.99;64.54;93615.84;1732045;81;21741;-57
2021/12/20 11:17:44;;;;;;;14.15;11.05;;;;;;;2.00;64.49;93614.65;1725162;81;21048;-56
2021/12/20 11:20:10;;;;;;;22.02;14.20;;;;;;;1.97;64.44;93612.78;1741234;81;21117;-57
2021/12/20 11:22:39;;;;;;;17.95;13.08;;;;;;;1.95;64.62;93609.13;1697583;81;21080;-57
2021/12/20 11:25:07;;;;;;;17.32;12.28;;;;;;;1.96;64.65;93607.94;1744054;81;20982;-55
2021/12/20 11:27:42;;;;;;;16.42;11.88;;;;;;;1.92;64.76;93604.55;1742724;81;21065;-60
2021/12/20 11:30:13;;;;;;;21.12;12.88;;;;;;;2.00;64.81;93597.02;1738390;81;21060;-58
2021/12/20 11:32:41;;;;;;;17.65;11.05;;;;;;;2.07;64.53;93599.57;1749431;81;21162;-54
2021/12/20 11:35:08;;;;;;;20.10;11.48;;;;;;;2.14;64.31;93599.43;1743212;81;21328;-57
2021/12/20 11:37:40;;;;;;;12.80;10.63;;;;;;;2.12;64.20;93611.30;1748992;81;21074;-56
2021/12/20 11:40:09;;;;;;;17.17;11.18;;;;;;;2.11;64.15;93612.48;1744600;81;21075;-58
2021/12/20 11:42:36;;;;;;;19.52;12.30;;;;;;;2.15;64.54;93622.05;1753191;81;21052;-55
2021/12/20 11:45:06;;;;;;;23.87;15.05;;;;;;;2.20;64.53;93624.86;1741438;81;21143;-56
2021/12/20 11:47:59;;;;;;;26.07;16.35;;;;;;;2.20;64.63;93626.22;1713633;81;21060;-56
2021/12/20 11:50:34;;;;;;;20.10;13.03;;;;;;;2.13;65.14;93636.63;1739015;81;21007;-58
2021/12/20 11:53:13;;;;;;;17.00;11.50;;;;;;;2.08;65.93;93637.70;1729286;81;21037;-55
2021/12/20 11:55:51;;;;;;;21.55;13.72;;;;;;;2.03;66.84;93639.57;1736072;81;21107;-59
2021/12/20 11:58:28;;;;;;;24.52;16.45;;;;;;;1.95;67.56;93643.02;1709051;81;21142;-59
2021/12/20 12:01:00;;;;;;;21.55;14.75;;;;;;;1.91;68.34;93641.55;1741570;81;21038;-58